sensor_id;sensor_type;location;lat;lon;timestamp;P1;durP1;ratioP1;P2;durP2;ratioP2
68300;SDS011;55146;47.468;18.806;2023-04-28T00:00:46;12.45;;;7.78;;
68300;SDS011;55146;47.468;18.806;2023-04-28T00:03:11;12.60;;;6.57;;
68300;SDS011;55146;47.468;18.806;2023-04-28T00:05:37;10.30;;;7.20;;
68300;SDS011;55146;47.468;18.806;2023-04-28T00:08:02;14.23;;;7.00;;
68300;SDS011;55146;47.468;18.806;2023-04-28T00:10:29;12.32;;;7.30;;
68300;SDS011;55146;47.468;18.806;2023-04-28T00:12:55;12.85;;;7.37;;
68300;SDS011;55146;47.468;18.806;2023-04-28T00:15:20;11.53;;;7.07;;
68300;SDS011;55146;47.468;18.806;2023-04-28T00:17:46;15.57;;;6.40;;
68300;SDS011;55146;47.468;18.806;2023-04-28T00:20:11;12.87;;;7.03;;
68300;SDS011;55146;47.468;18.806;2023-04-28T00:22:37;15.68;;;7.12;;
68300;SDS011;55146;47.468;18.806;2023-04-28T00:25:02;12.63;;;6.27;;
68300;SDS011;55146;47.468;18.806;2023-04-28T00:27:28;10.75;;;6.15;;
68300;SDS011;55146;47.468;18.806;2023-04-28T00:29:54;9.63;;;6.43;;
68300;SDS011;55146;47.468;18.806;2023-04-28T00:32:19;13.57;;;6.43;;
68300;SDS011;55146;47.468;18.806;2023-04-28T00:34:45;12.32;;;6.70;;
68300;SDS011;55146;47.468;18.806;2023-04-28T00:37:10;13.73;;;6.83;;
68300;SDS011;55146;47.468;18.806;2023-04-28T00:39:36;11.67;;;7.47;;
68300;SDS011;55146;47.468;18.806;2023-04-28T00:42:01;12.47;;;6.87;;
68300;SDS011;55146;47.468;18.806;2023-04-28T00:44:28;10.15;;;6.05;;
68300;SDS011;55146;47.468;18.806;2023-04-28T00:46:53;11.97;;;6.93;;
68300;SDS011;55146;47.468;18.806;2023-04-28T00:49:19;11.20;;;6.60;;
68300;SDS011;55146;47.468;18.806;2023-04-28T00:51:44;12.27;;;7.47;;
68300;SDS011;55146;47.468;18.806;2023-04-28T00:54:12;13.10;;;8.10;;
68300;SDS011;55146;47.468;18.806;2023-04-28T00:56:37;11.52;;;7.90;;
68300;SDS011;55146;47.468;18.806;2023-04-28T00:59:03;12.60;;;6.77;;
68300;SDS011;55146;47.468;18.806;2023-04-28T01:01:28;11.00;;;7.03;;
68300;SDS011;55146;47.468;18.806;2023-04-28T01:03:54;14.57;;;6.93;;
68300;SDS011;55146;47.468;18.806;2023-04-28T01:06:19;10.88;;;6.65;;
68300;SDS011;55146;47.468;18.806;2023-04-28T01:08:47;12.40;;;6.90;;
68300;SDS011;55146;47.468;18.806;2023-04-28T01:11:14;14.07;;;7.68;;
68300;SDS011;55146;47.468;18.806;2023-04-28T01:13:40;12.82;;;7.93;;
68300;SDS011;55146;47.468;18.806;2023-04-28T01:16:06;13.87;;;7.90;;
68300;SDS011;55146;47.468;18.806;2023-04-28T01:18:31;14.93;;;6.80;;
68300;SDS011;55146;47.468;18.806;2023-04-28T01:20:57;13.27;;;7.83;;
68300;SDS011;55146;47.468;18.806;2023-04-28T01:23:22;12.10;;;7.10;;
68300;SDS011;55146;47.468;18.806;2023-04-28T01:25:48;12.63;;;8.07;;
68300;SDS011;55146;47.468;18.806;2023-04-28T01:28:13;11.60;;;7.23;;
68300;SDS011;55146;47.468;18.806;2023-04-28T01:30:38;15.27;;;6.65;;
68300;SDS011;55146;47.468;18.806;2023-04-28T01:33:04;12.53;;;7.10;;
68300;SDS011;55146;47.468;18.806;2023-04-28T01:35:29;11.47;;;6.67;;
68300;SDS011;55146;47.468;18.806;2023-04-28T01:37:55;13.30;;;7.43;;
68300;SDS011;55146;47.468;18.806;2023-04-28T01:40:20;11.13;;;6.87;;
68300;SDS011;55146;47.468;18.806;2023-04-28T01:42:45;10.95;;;6.82;;
68300;SDS011;55146;47.468;18.806;2023-04-28T01:45:11;12.73;;;7.60;;
68300;SDS011;55146;47.468;18.806;2023-04-28T01:47:36;12.43;;;7.40;;
68300;SDS011;55146;47.468;18.806;2023-04-28T01:50:02;13.95;;;7.30;;
68300;SDS011;55146;47.468;18.806;2023-04-28T01:52:27;11.90;;;7.90;;
68300;SDS011;55146;47.468;18.806;2023-04-28T01:54:53;12.33;;;6.77;;
68300;SDS011;55146;47.468;18.806;2023-04-28T01:57:19;12.85;;;6.87;;
68300;SDS011;55146;47.468;18.806;2023-04-28T01:59:44;13.70;;;7.73;;
68300;SDS011;55146;47.468;18.806;2023-04-28T02:02:10;12.47;;;7.40;;
68300;SDS011;55146;47.468;18.806;2023-04-28T02:04:36;12.98;;;8.20;;
68300;SDS011;55146;47.468;18.806;2023-04-28T02:07:02;12.65;;;8.32;;
68300;SDS011;55146;47.468;18.806;2023-04-28T02:09:27;15.53;;;7.70;;
68300;SDS011;55146;47.468;18.806;2023-04-28T02:11:53;15.00;;;8.03;;
68300;SDS011;55146;47.468;18.806;2023-04-28T02:14:18;16.10;;;8.37;;
68300;SDS011;55146;47.468;18.806;2023-04-28T02:16:43;14.10;;;7.67;;
68300;SDS011;55146;47.468;18.806;2023-04-28T02:19:09;13.05;;;7.45;;
68300;SDS011;55146;47.468;18.806;2023-04-28T02:21:34;15.10;;;8.03;;
68300;SDS011;55146;47.468;18.806;2023-04-28T02:24:00;11.90;;;7.70;;
68300;SDS011;55146;47.468;18.806;2023-04-28T02:26:25;14.37;;;8.10;;
68300;SDS011;55146;47.468;18.806;2023-04-28T02:28:50;14.60;;;7.60;;
68300;SDS011;55146;47.468;18.806;2023-04-28T02:31:16;12.20;;;7.33;;
68300;SDS011;55146;47.468;18.806;2023-04-28T02:33:42;15.57;;;8.27;;
68300;SDS011;55146;47.468;18.806;2023-04-28T02:36:07;15.18;;;7.32;;
68300;SDS011;55146;47.468;18.806;2023-04-28T02:38:34;14.02;;;7.35;;
68300;SDS011;55146;47.468;18.806;2023-04-28T02:40:59;15.47;;;8.40;;
68300;SDS011;55146;47.468;18.806;2023-04-28T02:43:26;11.63;;;7.03;;
68300;SDS011;55146;47.468;18.806;2023-04-28T02:45:53;12.25;;;7.55;;
68300;SDS011;55146;47.468;18.806;2023-04-28T02:48:18;15.57;;;7.43;;
68300;SDS011;55146;47.468;18.806;2023-04-28T02:50:44;10.98;;;7.00;;
68300;SDS011;55146;47.468;18.806;2023-04-28T02:53:12;14.13;;;8.07;;
68300;SDS011;55146;47.468;18.806;2023-04-28T02:55:37;13.62;;;7.93;;
68300;SDS011;55146;47.468;18.806;2023-04-28T02:58:03;11.83;;;7.53;;
68300;SDS011;55146;47.468;18.806;2023-04-28T03:00:28;12.17;;;7.60;;
68300;SDS011;55146;47.468;18.806;2023-04-28T03:02:54;14.90;;;8.48;;
68300;SDS011;55146;47.468;18.806;2023-04-28T03:05:19;15.10;;;9.33;;
68300;SDS011;55146;47.468;18.806;2023-04-28T03:07:45;12.53;;;6.80;;
68300;SDS011;55146;47.468;18.806;2023-04-28T03:10:10;13.47;;;7.40;;
68300;SDS011;55146;47.468;18.806;2023-04-28T03:12:36;12.07;;;7.25;;
68300;SDS011;55146;47.468;18.806;2023-04-28T03:15:01;15.57;;;6.70;;
68300;SDS011;55146;47.468;18.806;2023-04-28T03:17:26;17.07;;;7.47;;
68300;SDS011;55146;47.468;18.806;2023-04-28T03:19:52;12.83;;;7.03;;
68300;SDS011;55146;47.468;18.806;2023-04-28T03:22:17;12.87;;;7.20;;
68300;SDS011;55146;47.468;18.806;2023-04-28T03:24:43;14.52;;;7.12;;
68300;SDS011;55146;47.468;18.806;2023-04-28T03:27:08;15.97;;;7.30;;
68300;SDS011;55146;47.468;18.806;2023-04-28T03:29:33;15.13;;;6.63;;
68300;SDS011;55146;47.468;18.806;2023-04-28T03:31:58;14.37;;;7.67;;
68300;SDS011;55146;47.468;18.806;2023-04-28T03:34:24;11.67;;;7.80;;
68300;SDS011;55146;47.468;18.806;2023-04-28T03:36:49;11.10;;;6.50;;
68300;SDS011;55146;47.468;18.806;2023-04-28T03:39:15;11.77;;;7.15;;
68300;SDS011;55146;47.468;18.806;2023-04-28T03:41:40;11.87;;;7.17;;
68300;SDS011;55146;47.468;18.806;2023-04-28T03:44:06;12.37;;;7.20;;
68300;SDS011;55146;47.468;18.806;2023-04-28T03:46:31;10.73;;;7.33;;
68300;SDS011;55146;47.468;18.806;2023-04-28T03:48:58;9.85;;;6.35;;
68300;SDS011;55146;47.468;18.806;2023-04-28T03:51:25;11.57;;;7.10;;
68300;SDS011;55146;47.468;18.806;2023-04-28T03:53:51;10.95;;;6.35;;
68300;SDS011;55146;47.468;18.806;2023-04-28T03:56:17;13.40;;;7.53;;
68300;SDS011;55146;47.468;18.806;2023-04-28T03:58:42;12.17;;;7.77;;
68300;SDS011;55146;47.468;18.806;2023-04-28T04:01:07;11.87;;;7.10;;
68300;SDS011;55146;47.468;18.806;2023-04-28T04:03:33;11.57;;;7.22;;
68300;SDS011;55146;47.468;18.806;2023-04-28T04:05:58;12.93;;;8.03;;
68300;SDS011;55146;47.468;18.806;2023-04-28T04:08:24;12.23;;;6.73;;
68300;SDS011;55146;47.468;18.806;2023-04-28T04:10:50;15.13;;;7.68;;
68300;SDS011;55146;47.468;18.806;2023-04-28T04:13:16;12.23;;;7.17;;
68300;SDS011;55146;47.468;18.806;2023-04-28T04:15:42;12.05;;;6.70;;
68300;SDS011;55146;47.468;18.806;2023-04-28T04:18:07;14.23;;;8.10;;
68300;SDS011;55146;47.468;18.806;2023-04-28T04:20:32;13.47;;;7.17;;
68300;SDS011;55146;47.468;18.806;2023-04-28T04:22:58;15.27;;;8.00;;
68300;SDS011;55146;47.468;18.806;2023-04-28T04:25:23;16.85;;;8.32;;
68300;SDS011;55146;47.468;18.806;2023-04-28T04:27:49;13.33;;;8.40;;
68300;SDS011;55146;47.468;18.806;2023-04-28T04:30:14;13.77;;;8.43;;
68300;SDS011;55146;47.468;18.806;2023-04-28T04:32:39;12.43;;;8.53;;
68300;SDS011;55146;47.468;18.806;2023-04-28T04:35:05;15.33;;;7.70;;
68300;SDS011;55146;47.468;18.806;2023-04-28T04:37:30;14.80;;;7.60;;
68300;SDS011;55146;47.468;18.806;2023-04-28T04:39:57;15.30;;;8.40;;
68300;SDS011;55146;47.468;18.806;2023-04-28T04:42:22;16.05;;;9.43;;
68300;SDS011;55146;47.468;18.806;2023-04-28T04:44:47;15.73;;;7.60;;
68300;SDS011;55146;47.468;18.806;2023-04-28T04:47:13;12.67;;;8.77;;
68300;SDS011;55146;47.468;18.806;2023-04-28T04:49:38;15.87;;;7.60;;
68300;SDS011;55146;47.468;18.806;2023-04-28T04:52:03;13.93;;;8.97;;
68300;SDS011;55146;47.468;18.806;2023-04-28T04:54:30;18.98;;;10.52;;
68300;SDS011;55146;47.468;18.806;2023-04-28T04:56:56;20.98;;;10.73;;
68300;SDS011;55146;47.468;18.806;2023-04-28T04:59:21;19.27;;;10.03;;
68300;SDS011;55146;47.468;18.806;2023-04-28T05:01:47;22.60;;;11.13;;
68300;SDS011;55146;47.468;18.806;2023-04-28T05:04:12;20.33;;;12.17;;
68300;SDS011;55146;47.468;18.806;2023-04-28T05:06:37;39.93;;;19.63;;
68300;SDS011;55146;47.468;18.806;2023-04-28T05:09:04;35.17;;;17.45;;
68300;SDS011;55146;47.468;18.806;2023-04-28T05:11:29;44.50;;;19.10;;
68300;SDS011;55146;47.468;18.806;2023-04-28T05:13:54;37.00;;;18.27;;
68300;SDS011;55146;47.468;18.806;2023-04-28T05:16:20;34.87;;;17.53;;
68300;SDS011;55146;47.468;18.806;2023-04-28T05:18:45;29.77;;;14.25;;
68300;SDS011;55146;47.468;18.806;2023-04-28T05:21:11;25.73;;;13.37;;
68300;SDS011;55146;47.468;18.806;2023-04-28T05:23:36;24.77;;;13.03;;
68300;SDS011;55146;47.468;18.806;2023-04-28T05:26:01;27.97;;;13.50;;
68300;SDS011;55146;47.468;18.806;2023-04-28T05:28:28;27.15;;;14.05;;
68300;SDS011;55146;47.468;18.806;2023-04-28T05:30:54;26.05;;;15.07;;
68300;SDS011;55146;47.468;18.806;2023-04-28T05:33:19;27.43;;;13.43;;
68300;SDS011;55146;47.468;18.806;2023-04-28T05:35:45;26.77;;;14.00;;
68300;SDS011;55146;47.468;18.806;2023-04-28T05:38:11;25.62;;;13.55;;
68300;SDS011;55146;47.468;18.806;2023-04-28T05:40:36;28.10;;;13.17;;
68300;SDS011;55146;47.468;18.806;2023-04-28T05:43:01;33.73;;;14.07;;
68300;SDS011;55146;47.468;18.806;2023-04-28T05:45:27;30.33;;;14.52;;
68300;SDS011;55146;47.468;18.806;2023-04-28T05:47:52;30.07;;;11.67;;
68300;SDS011;55146;47.468;18.806;2023-04-28T05:50:18;34.77;;;13.23;;
68300;SDS011;55146;47.468;18.806;2023-04-28T05:52:43;25.77;;;12.80;;
68300;SDS011;55146;47.468;18.806;2023-04-28T05:55:09;22.23;;;12.20;;
68300;SDS011;55146;47.468;18.806;2023-04-28T05:57:34;19.83;;;11.77;;
68300;SDS011;55146;47.468;18.806;2023-04-28T06:00:00;19.97;;;12.03;;
68300;SDS011;55146;47.468;18.806;2023-04-28T06:02:25;19.40;;;12.37;;
68300;SDS011;55146;47.468;18.806;2023-04-28T06:04:51;21.77;;;12.27;;
68300;SDS011;55146;47.468;18.806;2023-04-28T06:07:17;24.87;;;11.50;;
68300;SDS011;55146;47.468;18.806;2023-04-28T06:09:42;18.27;;;10.97;;
68300;SDS011;55146;47.468;18.806;2023-04-28T06:12:07;18.83;;;12.00;;
68300;SDS011;55146;47.468;18.806;2023-04-28T06:14:33;22.80;;;12.03;;
68300;SDS011;55146;47.468;18.806;2023-04-28T06:17:00;19.83;;;11.50;;
68300;SDS011;55146;47.468;18.806;2023-04-28T06:19:25;19.07;;;11.80;;
68300;SDS011;55146;47.468;18.806;2023-04-28T06:21:51;20.13;;;11.77;;
68300;SDS011;55146;47.468;18.806;2023-04-28T06:24:17;19.00;;;10.77;;
68300;SDS011;55146;47.468;18.806;2023-04-28T06:26:42;17.97;;;10.70;;
68300;SDS011;55146;47.468;18.806;2023-04-28T06:29:07;23.13;;;11.87;;
68300;SDS011;55146;47.468;18.806;2023-04-28T06:31:32;19.93;;;11.60;;
68300;SDS011;55146;47.468;18.806;2023-04-28T06:33:58;19.05;;;10.75;;
68300;SDS011;55146;47.468;18.806;2023-04-28T06:36:23;21.13;;;11.23;;
68300;SDS011;55146;47.468;18.806;2023-04-28T06:38:49;20.10;;;10.47;;
68300;SDS011;55146;47.468;18.806;2023-04-28T06:41:14;17.13;;;11.60;;
68300;SDS011;55146;47.468;18.806;2023-04-28T06:43:40;19.65;;;11.65;;
68300;SDS011;55146;47.468;18.806;2023-04-28T06:46:05;20.33;;;10.37;;
68300;SDS011;55146;47.468;18.806;2023-04-28T06:48:31;19.60;;;10.23;;
68300;SDS011;55146;47.468;18.806;2023-04-28T06:50:56;24.57;;;11.30;;
68300;SDS011;55146;47.468;18.806;2023-04-28T06:53:21;19.20;;;10.20;;
68300;SDS011;55146;47.468;18.806;2023-04-28T06:55:47;11.77;;;8.30;;
68300;SDS011;55146;47.468;18.806;2023-04-28T06:58:12;10.77;;;7.20;;
68300;SDS011;55146;47.468;18.806;2023-04-28T07:00:38;15.40;;;7.87;;
68300;SDS011;55146;47.468;18.806;2023-04-28T07:03:03;11.53;;;7.67;;
68300;SDS011;55146;47.468;18.806;2023-04-28T07:05:29;15.43;;;7.85;;
68300;SDS011;55146;47.468;18.806;2023-04-28T07:07:54;16.40;;;7.30;;
68300;SDS011;55146;47.468;18.806;2023-04-28T07:10:19;13.97;;;7.13;;
68300;SDS011;55146;47.468;18.806;2023-04-28T07:12:45;12.27;;;7.50;;
68300;SDS011;55146;47.468;18.806;2023-04-28T07:15:10;11.38;;;7.07;;
68300;SDS011;55146;47.468;18.806;2023-04-28T07:17:36;11.63;;;6.77;;
68300;SDS011;55146;47.468;18.806;2023-04-28T07:20:02;11.30;;;7.47;;
68300;SDS011;55146;47.468;18.806;2023-04-28T07:22:29;13.02;;;7.65;;
68300;SDS011;55146;47.468;18.806;2023-04-28T07:24:55;17.30;;;8.33;;
68300;SDS011;55146;47.468;18.806;2023-04-28T07:27:20;16.00;;;10.38;;
68300;SDS011;55146;47.468;18.806;2023-04-28T07:29:46;12.97;;;7.13;;
68300;SDS011;55146;47.468;18.806;2023-04-28T07:32:11;9.93;;;6.17;;
68300;SDS011;55146;47.468;18.806;2023-04-28T07:34:37;18.43;;;7.23;;
68300;SDS011;55146;47.468;18.806;2023-04-28T07:37:02;12.47;;;5.70;;
68300;SDS011;55146;47.468;18.806;2023-04-28T07:39:29;10.95;;;5.43;;
68300;SDS011;55146;47.468;18.806;2023-04-28T07:41:55;11.80;;;5.07;;
68300;SDS011;55146;47.468;18.806;2023-04-28T07:44:22;9.20;;;5.57;;
68300;SDS011;55146;47.468;18.806;2023-04-28T07:46:47;8.00;;;3.90;;
68300;SDS011;55146;47.468;18.806;2023-04-28T07:49:13;7.37;;;4.13;;
68300;SDS011;55146;47.468;18.806;2023-04-28T07:51:38;8.07;;;4.40;;
68300;SDS011;55146;47.468;18.806;2023-04-28T07:54:03;10.20;;;4.63;;
68300;SDS011;55146;47.468;18.806;2023-04-28T07:56:29;8.67;;;5.13;;
68300;SDS011;55146;47.468;18.806;2023-04-28T07:58:55;11.10;;;4.68;;
68300;SDS011;55146;47.468;18.806;2023-04-28T08:01:21;16.80;;;5.33;;
68300;SDS011;55146;47.468;18.806;2023-04-28T08:03:46;9.00;;;4.18;;
68300;SDS011;55146;47.468;18.806;2023-04-28T08:06:11;8.33;;;4.97;;
68300;SDS011;55146;47.468;18.806;2023-04-28T08:08:37;8.03;;;4.73;;
68300;SDS011;55146;47.468;18.806;2023-04-28T08:11:03;10.05;;;4.72;;
68300;SDS011;55146;47.468;18.806;2023-04-28T08:13:29;8.63;;;4.37;;
68300;SDS011;55146;47.468;18.806;2023-04-28T08:15:54;7.53;;;4.82;;
68300;SDS011;55146;47.468;18.806;2023-04-28T08:18:22;7.07;;;4.53;;
68300;SDS011;55146;47.468;18.806;2023-04-28T08:20:49;10.37;;;4.27;;
68300;SDS011;55146;47.468;18.806;2023-04-28T08:23:14;10.43;;;4.72;;
68300;SDS011;55146;47.468;18.806;2023-04-28T08:25:40;12.30;;;4.40;;
68300;SDS011;55146;47.468;18.806;2023-04-28T08:28:05;12.65;;;6.70;;
68300;SDS011;55146;47.468;18.806;2023-04-28T08:30:32;10.82;;;5.35;;
68300;SDS011;55146;47.468;18.806;2023-04-28T08:32:58;13.10;;;6.03;;
68300;SDS011;55146;47.468;18.806;2023-04-28T08:35:23;10.37;;;5.57;;
68300;SDS011;55146;47.468;18.806;2023-04-28T08:37:50;9.90;;;4.60;;
68300;SDS011;55146;47.468;18.806;2023-04-28T08:40:16;9.68;;;5.10;;
68300;SDS011;55146;47.468;18.806;2023-04-28T08:42:42;10.03;;;4.67;;
68300;SDS011;55146;47.468;18.806;2023-04-28T08:45:12;8.68;;;4.68;;
68300;SDS011;55146;47.468;18.806;2023-04-28T08:47:38;9.20;;;4.70;;
68300;SDS011;55146;47.468;18.806;2023-04-28T08:50:09;10.20;;;4.90;;
68300;SDS011;55146;47.468;18.806;2023-04-28T08:52:36;8.40;;;5.60;;
68300;SDS011;55146;47.468;18.806;2023-04-28T08:55:09;8.20;;;4.20;;
68300;SDS011;55146;47.468;18.806;2023-04-28T08:57:44;8.63;;;4.50;;
68300;SDS011;55146;47.468;18.806;2023-04-28T09:00:12;8.98;;;4.43;;
68300;SDS011;55146;47.468;18.806;2023-04-28T09:02:37;9.25;;;5.03;;
68300;SDS011;55146;47.468;18.806;2023-04-28T09:05:06;12.50;;;6.33;;
68300;SDS011;55146;47.468;18.806;2023-04-28T09:07:32;10.27;;;4.97;;
68300;SDS011;55146;47.468;18.806;2023-04-28T09:10:16;13.57;;;5.40;;
68300;SDS011;55146;47.468;18.806;2023-04-28T09:12:52;12.82;;;5.20;;
68300;SDS011;55146;47.468;18.806;2023-04-28T09:15:33;11.57;;;5.93;;
68300;SDS011;55146;47.468;18.806;2023-04-28T09:18:01;7.97;;;5.22;;
68300;SDS011;55146;47.468;18.806;2023-04-28T09:20:28;7.97;;;4.80;;
68300;SDS011;55146;47.468;18.806;2023-04-28T09:22:55;8.00;;;4.12;;
68300;SDS011;55146;47.468;18.806;2023-04-28T09:28:24;9.35;;;3.62;;
68300;SDS011;55146;47.468;18.806;2023-04-28T09:30:49;9.90;;;3.70;;
68300;SDS011;55146;47.468;18.806;2023-04-28T09:33:15;8.82;;;3.90;;
68300;SDS011;55146;47.468;18.806;2023-04-28T09:35:41;12.17;;;4.23;;
68300;SDS011;55146;47.468;18.806;2023-04-28T09:38:09;10.73;;;4.32;;
68300;SDS011;55146;47.468;18.806;2023-04-28T09:43:33;10.23;;;4.25;;
68300;SDS011;55146;47.468;18.806;2023-04-28T09:46:03;7.35;;;4.47;;
68300;SDS011;55146;47.468;18.806;2023-04-28T09:48:30;8.83;;;4.10;;
68300;SDS011;55146;47.468;18.806;2023-04-28T09:51:00;7.80;;;4.28;;
68300;SDS011;55146;47.468;18.806;2023-04-28T09:53:29;10.60;;;5.70;;
68300;SDS011;55146;47.468;18.806;2023-04-28T09:55:57;7.32;;;4.32;;
68300;SDS011;55146;47.468;18.806;2023-04-28T09:58:24;14.90;;;4.85;;
68300;SDS011;55146;47.468;18.806;2023-04-28T10:00:55;8.93;;;4.63;;
68300;SDS011;55146;47.468;18.806;2023-04-28T10:03:22;10.13;;;5.03;;
68300;SDS011;55146;47.468;18.806;2023-04-28T10:05:50;11.12;;;5.12;;
68300;SDS011;55146;47.468;18.806;2023-04-28T10:08:17;8.18;;;4.60;;
68300;SDS011;55146;47.468;18.806;2023-04-28T10:10:47;11.25;;;4.20;;
68300;SDS011;55146;47.468;18.806;2023-04-28T10:13:16;11.77;;;6.67;;
68300;SDS011;55146;47.468;18.806;2023-04-28T10:15:43;8.52;;;5.10;;
68300;SDS011;55146;47.468;18.806;2023-04-28T10:18:10;7.70;;;5.72;;
68300;SDS011;55146;47.468;18.806;2023-04-28T10:20:37;9.02;;;5.45;;
68300;SDS011;55146;47.468;18.806;2023-04-28T10:23:23;13.88;;;5.78;;
68300;SDS011;55146;47.468;18.806;2023-04-28T10:26:00;9.77;;;4.80;;
68300;SDS011;55146;47.468;18.806;2023-04-28T10:28:27;9.15;;;5.68;;
68300;SDS011;55146;47.468;18.806;2023-04-28T10:33:38;11.73;;;6.67;;
68300;SDS011;55146;47.468;18.806;2023-04-28T10:36:05;11.50;;;5.68;;
68300;SDS011;55146;47.468;18.806;2023-04-28T10:38:31;8.93;;;5.62;;
68300;SDS011;55146;47.468;18.806;2023-04-28T10:40:57;11.07;;;5.37;;
68300;SDS011;55146;47.468;18.806;2023-04-28T10:48:17;9.40;;;4.83;;
68300;SDS011;55146;47.468;18.806;2023-04-28T10:56:14;13.13;;;5.43;;
68300;SDS011;55146;47.468;18.806;2023-04-28T10:58:47;8.80;;;4.90;;
68300;SDS011;55146;47.468;18.806;2023-04-28T11:06:31;7.78;;;4.93;;
68300;SDS011;55146;47.468;18.806;2023-04-28T11:08:59;10.53;;;4.60;;
68300;SDS011;55146;47.468;18.806;2023-04-28T11:11:29;9.50;;;5.60;;
68300;SDS011;55146;47.468;18.806;2023-04-28T11:24:53;12.70;;;5.32;;
68300;SDS011;55146;47.468;18.806;2023-04-28T11:27:23;10.48;;;5.10;;
68300;SDS011;55146;47.468;18.806;2023-04-28T11:29:49;11.30;;;5.43;;
68300;SDS011;55146;47.468;18.806;2023-04-28T11:32:14;7.30;;;4.70;;
68300;SDS011;55146;47.468;18.806;2023-04-28T11:34:40;8.60;;;4.60;;
68300;SDS011;55146;47.468;18.806;2023-04-28T11:37:06;8.10;;;3.55;;
68300;SDS011;55146;47.468;18.806;2023-04-28T11:39:32;7.80;;;4.22;;
68300;SDS011;55146;47.468;18.806;2023-04-28T11:42:07;7.60;;;4.57;;
68300;SDS011;55146;47.468;18.806;2023-04-28T11:44:34;9.02;;;4.40;;
68300;SDS011;55146;47.468;18.806;2023-04-28T11:47:00;11.93;;;5.13;;
68300;SDS011;55146;47.468;18.806;2023-04-28T11:49:30;8.65;;;4.50;;
68300;SDS011;55146;47.468;18.806;2023-04-28T11:52:08;10.43;;;4.97;;
68300;SDS011;55146;47.468;18.806;2023-04-28T11:54:34;6.30;;;3.60;;
68300;SDS011;55146;47.468;18.806;2023-04-28T11:57:01;9.98;;;4.60;;
68300;SDS011;55146;47.468;18.806;2023-04-28T11:59:31;12.93;;;4.45;;
68300;SDS011;55146;47.468;18.806;2023-04-28T12:02:07;12.55;;;4.93;;
68300;SDS011;55146;47.468;18.806;2023-04-28T12:04:33;10.77;;;5.70;;
68300;SDS011;55146;47.468;18.806;2023-04-28T12:09:39;7.65;;;4.25;;
68300;SDS011;55146;47.468;18.806;2023-04-28T12:12:13;7.12;;;3.87;;
68300;SDS011;55146;47.468;18.806;2023-04-28T12:15:00;7.45;;;4.25;;
68300;SDS011;55146;47.468;18.806;2023-04-28T12:17:30;7.03;;;4.60;;
68300;SDS011;55146;47.468;18.806;2023-04-28T12:19:58;7.03;;;3.50;;
68300;SDS011;55146;47.468;18.806;2023-04-28T12:25:09;9.38;;;3.97;;
68300;SDS011;55146;47.468;18.806;2023-04-28T12:27:37;6.60;;;4.22;;
68300;SDS011;55146;47.468;18.806;2023-04-28T12:30:25;8.90;;;4.87;;
68300;SDS011;55146;47.468;18.806;2023-04-28T12:32:53;10.02;;;4.53;;
68300;SDS011;55146;47.468;18.806;2023-04-28T12:35:21;8.60;;;4.30;;
68300;SDS011;55146;47.468;18.806;2023-04-28T12:37:48;8.48;;;4.70;;
68300;SDS011;55146;47.468;18.806;2023-04-28T12:40:13;9.93;;;4.40;;
68300;SDS011;55146;47.468;18.806;2023-04-28T12:42:39;7.60;;;4.22;;
68300;SDS011;55146;47.468;18.806;2023-04-28T12:45:05;9.03;;;4.13;;
68300;SDS011;55146;47.468;18.806;2023-04-28T12:47:31;9.85;;;4.45;;
68300;SDS011;55146;47.468;18.806;2023-04-28T12:49:56;8.57;;;4.20;;
68300;SDS011;55146;47.468;18.806;2023-04-28T12:52:21;13.60;;;5.20;;
68300;SDS011;55146;47.468;18.806;2023-04-28T12:54:47;7.53;;;4.40;;
68300;SDS011;55146;47.468;18.806;2023-04-28T12:57:16;12.43;;;5.23;;
68300;SDS011;55146;47.468;18.806;2023-04-28T12:59:42;9.23;;;4.45;;
68300;SDS011;55146;47.468;18.806;2023-04-28T13:02:08;9.15;;;5.43;;
68300;SDS011;55146;47.468;18.806;2023-04-28T13:04:33;10.77;;;5.27;;
68300;SDS011;55146;47.468;18.806;2023-04-28T13:07:00;11.17;;;5.03;;
68300;SDS011;55146;47.468;18.806;2023-04-28T13:09:26;11.10;;;5.35;;
68300;SDS011;55146;47.468;18.806;2023-04-28T13:11:51;10.77;;;5.10;;
68300;SDS011;55146;47.468;18.806;2023-04-28T13:14:20;9.27;;;4.65;;
68300;SDS011;55146;47.468;18.806;2023-04-28T13:16:46;8.75;;;3.87;;
68300;SDS011;55146;47.468;18.806;2023-04-28T13:19:11;9.87;;;4.10;;
68300;SDS011;55146;47.468;18.806;2023-04-28T13:21:46;13.18;;;5.40;;
68300;SDS011;55146;47.468;18.806;2023-04-28T13:24:11;9.20;;;4.70;;
68300;SDS011;55146;47.468;18.806;2023-04-28T13:26:37;9.50;;;4.55;;
68300;SDS011;55146;47.468;18.806;2023-04-28T13:29:03;9.85;;;5.18;;
68300;SDS011;55146;47.468;18.806;2023-04-28T13:31:30;9.57;;;4.60;;
68300;SDS011;55146;47.468;18.806;2023-04-28T13:33:56;11.98;;;5.10;;
68300;SDS011;55146;47.468;18.806;2023-04-28T13:36:22;11.10;;;5.85;;
68300;SDS011;55146;47.468;18.806;2023-04-28T13:38:48;9.80;;;4.70;;
68300;SDS011;55146;47.468;18.806;2023-04-28T13:41:14;12.88;;;5.32;;
68300;SDS011;55146;47.468;18.806;2023-04-28T13:43:40;9.48;;;4.97;;
68300;SDS011;55146;47.468;18.806;2023-04-28T13:46:06;9.07;;;4.67;;
68300;SDS011;55146;47.468;18.806;2023-04-28T13:48:33;8.88;;;4.57;;
68300;SDS011;55146;47.468;18.806;2023-04-28T13:51:01;8.73;;;4.10;;
68300;SDS011;55146;47.468;18.806;2023-04-28T13:53:28;9.55;;;4.53;;
68300;SDS011;55146;47.468;18.806;2023-04-28T13:55:54;8.05;;;4.50;;
68300;SDS011;55146;47.468;18.806;2023-04-28T13:58:24;9.13;;;4.60;;
68300;SDS011;55146;47.468;18.806;2023-04-28T14:00:52;11.93;;;5.15;;
68300;SDS011;55146;47.468;18.806;2023-04-28T14:03:19;10.40;;;5.40;;
68300;SDS011;55146;47.468;18.806;2023-04-28T14:05:48;17.40;;;6.93;;
68300;SDS011;55146;47.468;18.806;2023-04-28T14:08:15;14.30;;;6.15;;
68300;SDS011;55146;47.468;18.806;2023-04-28T14:10:41;12.03;;;5.20;;
68300;SDS011;55146;47.468;18.806;2023-04-28T14:13:07;12.40;;;4.95;;
68300;SDS011;55146;47.468;18.806;2023-04-28T14:15:32;7.93;;;4.07;;
68300;SDS011;55146;47.468;18.806;2023-04-28T14:17:58;11.63;;;6.27;;
68300;SDS011;55146;47.468;18.806;2023-04-28T14:20:23;8.63;;;5.00;;
68300;SDS011;55146;47.468;18.806;2023-04-28T14:22:49;10.23;;;5.13;;
68300;SDS011;55146;47.468;18.806;2023-04-28T14:25:15;7.13;;;4.70;;
68300;SDS011;55146;47.468;18.806;2023-04-28T14:27:41;10.95;;;5.72;;
68300;SDS011;55146;47.468;18.806;2023-04-28T14:30:07;8.63;;;4.50;;
68300;SDS011;55146;47.468;18.806;2023-04-28T14:32:33;10.15;;;5.68;;
68300;SDS011;55146;47.468;18.806;2023-04-28T14:34:59;9.80;;;5.20;;
68300;SDS011;55146;47.468;18.806;2023-04-28T14:37:25;8.50;;;5.28;;
68300;SDS011;55146;47.468;18.806;2023-04-28T14:39:51;14.63;;;5.77;;
68300;SDS011;55146;47.468;18.806;2023-04-28T14:42:16;12.90;;;4.57;;
68300;SDS011;55146;47.468;18.806;2023-04-28T14:44:42;10.77;;;4.23;;
68300;SDS011;55146;47.468;18.806;2023-04-28T14:47:08;11.85;;;5.32;;
68300;SDS011;55146;47.468;18.806;2023-04-28T14:49:34;8.27;;;4.57;;
68300;SDS011;55146;47.468;18.806;2023-04-28T14:52:00;10.83;;;4.83;;
68300;SDS011;55146;47.468;18.806;2023-04-28T14:54:25;8.33;;;4.17;;
68300;SDS011;55146;47.468;18.806;2023-04-28T14:56:51;12.33;;;5.77;;
68300;SDS011;55146;47.468;18.806;2023-04-28T14:59:16;9.77;;;5.03;;